In Rescue
 
Open Full Screen Window  High Contrast Mode
Wind Gusting 00 knots
05
October 25, 2021 3:06 PM EDT
Weather Information
Wind Direction
  040 °
Wind Speed
  05 kt (6 mph)
Wind Gust
  00 kt (0 mph)
Altimeter
29.70 in
Visibility
10 SM
Temperature
10° C
50° F
Dewpoint
10° C
50° F
Humidity
100%
Sky Condition
Overcast @ 700 ft
IFR

METAR KDUH 251906Z AUTO 04005KT 10SM OVC007 10/10 A2970 RMK AO2 T01000096

FAA Disclaimer: The data displayed is for advisory purposes only and is not to be used for flight planning or operations.